Time;durP1;ratioP1;P1;durP2;ratioP2;P2;SDS_P1;SDS_P2;PMS_P1;PMS_P2;Temp;Humidity;BMP_temperature;BMP_pressure;BME280_temperature;BME280_humidity;BME280_pressure;Samples;Min_cycle;Max_cycle;Signal;HPM_P1;HPM_P2
2023/12/26 00:01:13;;;;;;;2.25;1.10;;;;;;;;;;5098437;28;20214;-67
2023/12/26 00:03:40;;;;;;;2.90;1.40;;;;;;;;;;5098304;28;20547;-68
2023/12/26 00:06:08;;;;;;;2.60;1.00;;;;;;;;;;5097919;28;20262;-68
2023/12/26 00:08:35;;;;;;;2.97;1.50;;;;;;;;;;5097962;28;20635;-68
2023/12/26 00:11:05;;;;;;;1.85;1.15;;;;;;;;;;5098012;28;20214;-68
2023/12/26 00:13:32;;;;;;;1.52;1.00;;;;;;;;;;5097469;28;20593;-68
2023/12/26 00:16:00;;;;;;;2.72;0.95;;;;;;;;;;5098180;28;20199;-68
2023/12/26 00:18:27;;;;;;;1.67;0.90;;;;;;;;;;5097764;28;20203;-67
2023/12/26 00:20:55;;;;;;;1.48;1.08;;;;;;;;;;5098184;28;20459;-69
2023/12/26 00:23:22;;;;;;;1.88;1.10;;;;;;;;;;5098365;28;20203;-69
2023/12/26 00:25:50;;;;;;;1.30;0.95;;;;;;;;;;5097549;28;20276;-67
2023/12/26 00:28:19;;;;;;;2.55;1.10;;;;;;;;;;5097495;28;20591;-69
2023/12/26 00:30:47;;;;;;;1.67;1.00;;;;;;;;;;5097820;28;20297;-69
2023/12/26 00:33:14;;;;;;;1.63;0.95;;;;;;;;;;5097742;28;20257;-67
2023/12/26 00:35:42;;;;;;;1.60;1.00;;;;;;;;;;5097642;28;20243;-67
2023/12/26 00:38:09;;;;;;;1.70;1.00;;;;;;;;;;5097346;28;20219;-69
2023/12/26 00:40:41;;;;;;;1.48;0.77;;;;;;;;;;5097652;28;20200;-69
2023/12/26 00:43:08;;;;;;;1.48;0.80;;;;;;;;;;5097484;28;20273;-69
2023/12/26 00:45:37;;;;;;;1.83;1.00;;;;;;;;;;5097499;28;20320;-69
2023/12/26 00:48:05;;;;;;;1.63;1.00;;;;;;;;;;5097181;28;20203;-68
2023/12/26 00:50:32;;;;;;;1.25;0.80;;;;;;;;;;5097450;28;20580;-68
2023/12/26 00:53:03;;;;;;;1.85;0.90;;;;;;;;;;5097735;28;20253;-68
2023/12/26 00:55:31;;;;;;;2.05;1.02;;;;;;;;;;5097415;28;20204;-68
2023/12/26 00:57:58;;;;;;;1.27;0.80;;;;;;;;;;5097568;28;20294;-68
2023/12/26 01:00:26;;;;;;;1.80;0.90;;;;;;;;;;5097373;28;20346;-67
2023/12/26 01:02:55;;;;;;;1.63;0.98;;;;;;;;;;5097955;28;20467;-67
2023/12/26 01:05:23;;;;;;;1.20;0.77;;;;;;;;;;5097004;28;20215;-67
2023/12/26 01:07:50;;;;;;;1.27;1.00;;;;;;;;;;5097156;28;20203;-67
2023/12/26 01:10:18;;;;;;;1.35;0.80;;;;;;;;;;5097332;28;20561;-68
2023/12/26 01:12:46;;;;;;;1.42;1.00;;;;;;;;;;5096447;28;20204;-68
2023/12/26 01:15:14;;;;;;;1.08;0.70;;;;;;;;;;5096991;28;20465;-68
2023/12/26 01:17:41;;;;;;;1.90;1.00;;;;;;;;;;5096672;28;20233;-68
2023/12/26 01:20:11;;;;;;;1.20;0.77;;;;;;;;;;5098918;28;20230;-69
2023/12/26 01:22:39;;;;;;;0.90;0.77;;;;;;;;;;5101131;28;20654;-68
2023/12/26 01:25:06;;;;;;;1.02;0.93;;;;;;;;;;5101459;28;20204;-68
2023/12/26 01:27:34;;;;;;;1.00;0.80;;;;;;;;;;5101346;28;20276;-68
2023/12/26 01:30:02;;;;;;;1.10;0.80;;;;;;;;;;5101120;28;20551;-68
2023/12/26 01:32:30;;;;;;;0.98;0.60;;;;;;;;;;5101125;28;20480;-68
2023/12/26 01:34:58;;;;;;;1.33;0.90;;;;;;;;;;5100497;28;20298;-69
2023/12/26 01:37:27;;;;;;;1.52;0.85;;;;;;;;;;5100652;28;20199;-68
2023/12/26 01:39:54;;;;;;;0.70;0.65;;;;;;;;;;5100229;28;20203;-68
2023/12/26 01:42:22;;;;;;;0.95;0.57;;;;;;;;;;5100719;28;20281;-68
2023/12/26 01:44:49;;;;;;;1.50;0.80;;;;;;;;;;5100779;28;20204;-68
2023/12/26 01:47:18;;;;;;;0.73;0.70;;;;;;;;;;5100619;28;20228;-68
2023/12/26 01:49:46;;;;;;;1.08;0.70;;;;;;;;;;5100662;28;20315;-69
2023/12/26 01:52:16;;;;;;;0.88;0.60;;;;;;;;;;5100762;28;20269;-68
2023/12/26 01:54:44;;;;;;;1.05;0.80;;;;;;;;;;5100532;28;20578;-68
2023/12/26 01:57:12;;;;;;;1.00;0.65;;;;;;;;;;5100696;28;20247;-68
2023/12/26 01:59:40;;;;;;;0.93;0.70;;;;;;;;;;5100365;28;20304;-68
2023/12/26 02:02:09;;;;;;;0.77;0.60;;;;;;;;;;5100513;28;20306;-68
2023/12/26 02:04:36;;;;;;;1.55;0.65;;;;;;;;;;5100082;28;20577;-68
2023/12/26 02:07:04;;;;;;;0.77;0.70;;;;;;;;;;5100581;28;20545;-68
2023/12/26 02:09:32;;;;;;;1.10;0.57;;;;;;;;;;5099760;28;20265;-68
2023/12/26 02:12:01;;;;;;;1.20;0.80;;;;;;;;;;5099954;28;20243;-68
2023/12/26 02:14:28;;;;;;;1.42;0.57;;;;;;;;;;5100399;28;20211;-68
2023/12/26 02:16:56;;;;;;;0.90;0.60;;;;;;;;;;5100304;28;20281;-68
2023/12/26 02:19:23;;;;;;;0.90;0.70;;;;;;;;;;5099953;28;20219;-68
2023/12/26 02:21:51;;;;;;;1.17;0.60;;;;;;;;;;5099787;28;20273;-68
2023/12/26 02:24:20;;;;;;;1.60;0.70;;;;;;;;;;5099821;28;20521;-68
2023/12/26 02:26:49;;;;;;;0.60;0.60;;;;;;;;;;5099828;28;20619;-68
2023/12/26 02:29:17;;;;;;;1.08;0.60;;;;;;;;;;5099700;28;20268;-69
2023/12/26 02:31:45;;;;;;;0.80;0.70;;;;;;;;;;5099581;28;20214;-68
2023/12/26 02:34:13;;;;;;;1.50;0.77;;;;;;;;;;5099432;28;20231;-68
2023/12/26 02:36:40;;;;;;;1.10;0.80;;;;;;;;;;5099501;28;20281;-68
2023/12/26 02:39:10;;;;;;;1.35;0.50;;;;;;;;;;5099408;28;20211;-68
2023/12/26 02:41:40;;;;;;;0.70;0.60;;;;;;;;;;5099317;28;20215;-69
2023/12/26 02:44:07;;;;;;;0.50;0.50;;;;;;;;;;5099402;28;20701;-68
2023/12/26 02:46:35;;;;;;;0.63;0.63;;;;;;;;;;5099371;28;20270;-69
2023/12/26 02:49:02;;;;;;;0.60;0.60;;;;;;;;;;5099250;28;20265;-68
2023/12/26 02:51:30;;;;;;;0.70;0.60;;;;;;;;;;5099876;28;20239;-68
2023/12/26 02:53:57;;;;;;;0.90;0.80;;;;;;;;;;5099430;28;20299;-69
2023/12/26 02:56:25;;;;;;;1.05;0.73;;;;;;;;;;5099529;28;20290;-68
2023/12/26 02:58:54;;;;;;;0.60;0.45;;;;;;;;;;5098619;28;20232;-68
2023/12/26 03:01:21;;;;;;;0.77;0.60;;;;;;;;;;5098858;28;20204;-68
2023/12/26 03:03:49;;;;;;;0.63;0.50;;;;;;;;;;5099338;28;20256;-68
2023/12/26 03:06:16;;;;;;;0.70;0.50;;;;;;;;;;5099134;28;20223;-68
2023/12/26 03:08:44;;;;;;;0.60;0.57;;;;;;;;;;5099121;28;20204;-68
2023/12/26 03:11:11;;;;;;;0.45;0.45;;;;;;;;;;5099094;28;20204;-68
2023/12/26 03:13:39;;;;;;;0.60;0.60;;;;;;;;;;5098671;28;20620;-68
2023/12/26 03:16:08;;;;;;;0.90;0.70;;;;;;;;;;5098906;28;20234;-69
2023/12/26 03:18:35;;;;;;;0.60;0.60;;;;;;;;;;5099428;28;20732;-68
2023/12/26 03:21:03;;;;;;;0.65;0.60;;;;;;;;;;5099187;28;20211;-68
2023/12/26 03:23:31;;;;;;;0.70;0.50;;;;;;;;;;5098780;28;20231;-68
2023/12/26 03:25:58;;;;;;;0.95;0.60;;;;;;;;;;5099179;28;20740;-68
2023/12/26 03:28:26;;;;;;;0.88;0.65;;;;;;;;;;5099202;28;20247;-68
2023/12/26 03:30:53;;;;;;;0.60;0.60;;;;;;;;;;5098891;28;20204;-68
2023/12/26 03:33:22;;;;;;;1.05;0.57;;;;;;;;;;5098733;28;20258;-68
2023/12/26 03:35:49;;;;;;;0.60;0.52;;;;;;;;;;5098787;28;20254;-69
2023/12/26 03:38:17;;;;;;;0.65;0.65;;;;;;;;;;5099036;28;20528;-68
2023/12/26 03:40:45;;;;;;;0.68;0.65;;;;;;;;;;5098229;28;20294;-68
2023/12/26 03:43:12;;;;;;;1.00;0.50;;;;;;;;;;5097980;28;20211;-68
2023/12/26 03:45:40;;;;;;;0.57;0.55;;;;;;;;;;5098718;28;20204;-69
2023/12/26 03:48:08;;;;;;;0.60;0.60;;;;;;;;;;5098663;28;20621;-68
2023/12/26 03:50:37;;;;;;;0.73;0.63;;;;;;;;;;5098296;28;20288;-68
2023/12/26 03:53:05;;;;;;;1.17;0.50;;;;;;;;;;5098569;28;20229;-68
2023/12/26 03:55:32;;;;;;;0.60;0.60;;;;;;;;;;5098284;28;20298;-68
2023/12/26 03:58:00;;;;;;;0.50;0.45;;;;;;;;;;5098316;28;20207;-68
2023/12/26 04:00:28;;;;;;;0.50;0.40;;;;;;;;;;5078132;28;20204;-68
2023/12/26 04:02:55;;;;;;;0.75;0.50;;;;;;;;;;5077926;28;20608;-68
2023/12/26 04:05:23;;;;;;;0.73;0.50;;;;;;;;;;5078304;28;20215;-68
2023/12/26 04:07:52;;;;;;;0.50;0.50;;;;;;;;;;5078172;28;20460;-68
2023/12/26 04:10:20;;;;;;;0.50;0.50;;;;;;;;;;5078168;28;20208;-68
2023/12/26 04:12:47;;;;;;;0.60;0.45;;;;;;;;;;5078053;28;20215;-69
2023/12/26 04:15:15;;;;;;;0.75;0.60;;;;;;;;;;5077726;28;20265;-68
2023/12/26 04:17:42;;;;;;;0.40;0.40;;;;;;;;;;5077465;28;20216;-68
2023/12/26 04:20:10;;;;;;;0.45;0.45;;;;;;;;;;5077591;28;20214;-68
2023/12/26 04:22:38;;;;;;;0.50;0.50;;;;;;;;;;5078373;28;20298;-68
2023/12/26 04:25:07;;;;;;;0.60;0.50;;;;;;;;;;5077167;28;20263;-68
2023/12/26 04:27:35;;;;;;;0.45;0.45;;;;;;;;;;5077630;28;20224;-68
2023/12/26 04:30:02;;;;;;;0.57;0.57;;;;;;;;;;5077440;28;20651;-68
2023/12/26 04:32:29;;;;;;;0.40;0.40;;;;;;;;;;5077292;28;20204;-68
2023/12/26 04:34:56;;;;;;;0.47;0.47;;;;;;;;;;5077381;28;20254;-68
2023/12/26 04:37:26;;;;;;;0.40;0.40;;;;;;;;;;5077562;28;20566;-68
2023/12/26 04:39:53;;;;;;;0.40;0.40;;;;;;;;;;5077602;28;20204;-68
2023/12/26 04:42:22;;;;;;;0.57;0.40;;;;;;;;;;5077630;28;20302;-68
2023/12/26 04:44:49;;;;;;;0.50;0.47;;;;;;;;;;5077422;28;20263;-68
2023/12/26 04:47:17;;;;;;;0.50;0.50;;;;;;;;;;5077399;28;20220;-68
2023/12/26 04:49:45;;;;;;;0.35;0.35;;;;;;;;;;5077441;28;20204;-68
2023/12/26 04:52:12;;;;;;;0.50;0.45;;;;;;;;;;5077510;28;20310;-68
2023/12/26 04:54:40;;;;;;;0.38;0.38;;;;;;;;;;5078717;28;20590;-68
2023/12/26 04:57:10;;;;;;;0.82;0.50;;;;;;;;;;5081689;28;20227;-68
2023/12/26 04:59:40;;;;;;;0.40;0.40;;;;;;;;;;5094516;28;20489;-68
2023/12/26 05:02:07;;;;;;;0.60;0.47;;;;;;;;;;5101380;28;20215;-68
2023/12/26 05:04:35;;;;;;;0.43;0.40;;;;;;;;;;5101921;28;20203;-68
2023/12/26 05:07:02;;;;;;;0.60;0.40;;;;;;;;;;5101913;28;20228;-68
2023/12/26 05:09:30;;;;;;;0.45;0.45;;;;;;;;;;5101295;28;20204;-68
2023/12/26 05:11:57;;;;;;;0.30;0.30;;;;;;;;;;5101387;28;20203;-68
2023/12/26 05:14:25;;;;;;;0.25;0.25;;;;;;;;;;5101730;28;20203;-68
2023/12/26 05:16:54;;;;;;;0.40;0.40;;;;;;;;;;5101477;28;20203;-68
2023/12/26 05:19:21;;;;;;;0.43;0.40;;;;;;;;;;5101250;28;20211;-68
2023/12/26 05:21:48;;;;;;;0.30;0.30;;;;;;;;;;5101200;28;20214;-68
2023/12/26 05:24:16;;;;;;;0.40;0.40;;;;;;;;;;5101239;28;20592;-68
2023/12/26 05:26:44;;;;;;;0.40;0.40;;;;;;;;;;5101437;28;20212;-68
2023/12/26 05:29:12;;;;;;;0.40;0.40;;;;;;;;;;5101552;28;20204;-68
2023/12/26 05:31:39;;;;;;;0.52;0.50;;;;;;;;;;5101096;28;20203;-68
2023/12/26 05:34:09;;;;;;;0.60;0.32;;;;;;;;;;5100965;28;20204;-69
2023/12/26 05:36:36;;;;;;;1.20;0.40;;;;;;;;;;5100938;28;20281;-68
2023/12/26 05:39:03;;;;;;;0.35;0.35;;;;;;;;;;5101448;28;20203;-68
2023/12/26 05:41:31;;;;;;;0.50;0.40;;;;;;;;;;5100731;28;20613;-69
2023/12/26 05:43:59;;;;;;;0.63;0.40;;;;;;;;;;5100559;28;20234;-68
2023/12/26 05:46:29;;;;;;;0.40;0.30;;;;;;;;;;5100577;28;20203;-68
2023/12/26 05:48:57;;;;;;;0.40;0.40;;;;;;;;;;5100858;28;20487;-68
2023/12/26 05:51:26;;;;;;;0.50;0.50;;;;;;;;;;5100931;28;20554;-68
2023/12/26 05:53:54;;;;;;;0.63;0.30;;;;;;;;;;5100548;28;20199;-68
2023/12/26 05:56:21;;;;;;;0.30;0.30;;;;;;;;;;5100447;28;20608;-68
2023/12/26 05:58:49;;;;;;;0.40;0.40;;;;;;;;;;5100467;28;20318;-68
2023/12/26 06:01:16;;;;;;;0.40;0.40;;;;;;;;;;5099370;28;20233;-68
2023/12/26 06:03:43;;;;;;;0.40;0.40;;;;;;;;;;5099435;28;20218;-68
2023/12/26 06:06:12;;;;;;;0.43;0.40;;;;;;;;;;5098981;28;20229;-68
2023/12/26 06:08:41;;;;;;;0.40;0.40;;;;;;;;;;5099289;28;20234;-68
2023/12/26 06:11:09;;;;;;;0.30;0.30;;;;;;;;;;5099097;28;20635;-68
2023/12/26 06:13:36;;;;;;;0.45;0.40;;;;;;;;;;5098736;28;20218;-68
2023/12/26 06:16:03;;;;;;;0.30;0.30;;;;;;;;;;5099004;28;20298;-68
2023/12/26 06:18:31;;;;;;;0.40;0.40;;;;;;;;;;5098436;28;20200;-68
2023/12/26 06:20:58;;;;;;;0.85;0.30;;;;;;;;;;5099373;28;20215;-68
2023/12/26 06:23:26;;;;;;;0.30;0.30;;;;;;;;;;5099247;28;20499;-68
2023/12/26 06:25:55;;;;;;;0.40;0.30;;;;;;;;;;5098788;28;20609;-68
2023/12/26 06:28:23;;;;;;;0.43;0.30;;;;;;;;;;5098637;28;20292;-68
2023/12/26 06:30:50;;;;;;;0.30;0.30;;;;;;;;;;5098386;28;20203;-69
2023/12/26 06:33:19;;;;;;;0.40;0.40;;;;;;;;;;5099166;28;20207;-68
2023/12/26 06:35:46;;;;;;;0.30;0.30;;;;;;;;;;5098399;28;20725;-68
2023/12/26 06:38:14;;;;;;;0.40;0.30;;;;;;;;;;5098628;28;20238;-68
2023/12/26 06:40:41;;;;;;;0.30;0.30;;;;;;;;;;5098694;28;20210;-68
2023/12/26 06:43:21;;;;;;;0.77;0.25;;;;;;;;;;5086487;28;20461;-68
2023/12/26 06:45:48;;;;;;;0.40;0.40;;;;;;;;;;5078913;28;20618;-68
2023/12/26 06:48:16;;;;;;;0.30;0.30;;;;;;;;;;5078383;28;20224;-68
2023/12/26 06:50:43;;;;;;;0.30;0.30;;;;;;;;;;5077967;28;20231;-69
2023/12/26 06:53:11;;;;;;;0.60;0.25;;;;;;;;;;5078352;28;20209;-68
2023/12/26 06:55:38;;;;;;;0.30;0.30;;;;;;;;;;5077679;28;20208;-69
2023/12/26 06:58:05;;;;;;;0.30;0.30;;;;;;;;;;5034584;28;1208599;-68
2023/12/26 07:00:34;;;;;;;0.40;0.40;;;;;;;;;;5061906;28;20205;-69
2023/12/26 07:03:02;;;;;;;0.30;0.30;;;;;;;;;;5078964;28;20204;-68
2023/12/26 07:05:29;;;;;;;0.68;0.38;;;;;;;;;;5079181;28;20527;-68
2023/12/26 07:07:57;;;;;;;0.30;0.30;;;;;;;;;;5079251;28;20228;-68
2023/12/26 07:10:24;;;;;;;0.40;0.30;;;;;;;;;;5078955;28;20204;-68
2023/12/26 07:12:51;;;;;;;0.50;0.30;;;;;;;;;;5078360;28;20215;-68
2023/12/26 07:15:19;;;;;;;0.40;0.30;;;;;;;;;;5078381;28;20208;-68
2023/12/26 07:17:48;;;;;;;0.40;0.30;;;;;;;;;;5077340;28;20593;-68
2023/12/26 07:20:15;;;;;;;0.20;0.20;;;;;;;;;;5078408;28;20204;-68
2023/12/26 07:22:43;;;;;;;0.40;0.40;;;;;;;;;;5078260;28;20211;-68
2023/12/26 07:25:10;;;;;;;0.40;0.40;;;;;;;;;;5077991;28;20205;-68
2023/12/26 07:27:37;;;;;;;0.20;0.20;;;;;;;;;;5078123;28;20262;-68
2023/12/26 07:30:05;;;;;;;0.20;0.20;;;;;;;;;;5078439;28;20219;-68
2023/12/26 07:32:33;;;;;;;0.30;0.30;;;;;;;;;;5078309;28;20215;-69
2023/12/26 07:35:01;;;;;;;0.68;0.40;;;;;;;;;;5078138;28;20204;-68
2023/12/26 07:37:29;;;;;;;0.22;0.22;;;;;;;;;;5078195;28;20585;-68
2023/12/26 07:39:56;;;;;;;0.50;0.35;;;;;;;;;;5078174;28;20211;-68
2023/12/26 07:42:23;;;;;;;0.35;0.35;;;;;;;;;;5077803;28;20204;-68
2023/12/26 07:44:51;;;;;;;0.30;0.30;;;;;;;;;;5078153;28;20219;-68
2023/12/26 07:47:18;;;;;;;0.20;0.20;;;;;;;;;;5077739;28;20208;-68
2023/12/26 07:49:46;;;;;;;0.30;0.30;;;;;;;;;;5077994;28;20224;-68
2023/12/26 07:52:15;;;;;;;0.38;0.38;;;;;;;;;;5077981;28;20204;-68
2023/12/26 07:54:43;;;;;;;0.20;0.20;;;;;;;;;;5077812;28;20215;-68
2023/12/26 07:57:10;;;;;;;0.30;0.30;;;;;;;;;;5077907;28;20240;-69
2023/12/26 07:59:37;;;;;;;0.50;0.30;;;;;;;;;;5077355;28;20787;-68
2023/12/26 08:02:05;;;;;;;0.43;0.40;;;;;;;;;;5077533;28;20204;-68
2023/12/26 08:04:32;;;;;;;0.30;0.30;;;;;;;;;;5077563;28;20215;-69
2023/12/26 08:06:59;;;;;;;0.30;0.20;;;;;;;;;;5077828;28;20697;-68
2023/12/26 08:09:28;;;;;;;0.50;0.40;;;;;;;;;;5077434;28;20235;-68
2023/12/26 08:11:55;;;;;;;0.30;0.25;;;;;;;;;;5077418;28;20223;-68
2023/12/26 08:14:23;;;;;;;0.30;0.30;;;;;;;;;;5077705;28;20204;-69
2023/12/26 08:16:50;;;;;;;0.20;0.20;;;;;;;;;;5077577;28;20203;-68
2023/12/26 08:19:17;;;;;;;0.55;0.30;;;;;;;;;;5077169;28;20581;-68
2023/12/26 08:21:45;;;;;;;0.30;0.30;;;;;;;;;;5076879;28;20204;-68
2023/12/26 08:24:12;;;;;;;0.25;0.25;;;;;;;;;;5076872;28;20204;-68
2023/12/26 08:26:41;;;;;;;0.22;0.22;;;;;;;;;;5076908;28;20211;-68
2023/12/26 08:29:09;;;;;;;0.30;0.30;;;;;;;;;;5077040;28;20232;-68
2023/12/26 08:31:36;;;;;;;0.20;0.20;;;;;;;;;;5077185;28;20210;-68
2023/12/26 08:34:03;;;;;;;0.40;0.40;;;;;;;;;;5077333;28;20636;-69
2023/12/26 08:36:31;;;;;;;0.35;0.35;;;;;;;;;;5077254;28;20207;-68
2023/12/26 08:38:58;;;;;;;0.63;0.30;;;;;;;;;;5077589;28;20227;-68
2023/12/26 08:41:26;;;;;;;0.40;0.30;;;;;;;;;;5077114;28;20227;-68
2023/12/26 08:43:54;;;;;;;0.30;0.30;;;;;;;;;;5077191;28;20211;-68
2023/12/26 08:46:22;;;;;;;0.30;0.20;;;;;;;;;;5076835;28;20227;-68
2023/12/26 08:48:49;;;;;;;0.30;0.30;;;;;;;;;;5076870;28;20239;-68
2023/12/26 08:51:16;;;;;;;0.45;0.30;;;;;;;;;;5076722;28;20219;-69
2023/12/26 08:53:44;;;;;;;0.30;0.30;;;;;;;;;;5076336;28;20291;-68
2023/12/26 08:56:11;;;;;;;0.40;0.40;;;;;;;;;;5077148;28;20204;-68
2023/12/26 08:58:39;;;;;;;0.30;0.30;;;;;;;;;;5076976;28;20224;-68
2023/12/26 09:01:10;;;;;;;0.30;0.30;;;;;;;;;;5076840;28;20223;-69
2023/12/26 09:03:39;;;;;;;0.30;0.30;;;;;;;;;;5076933;28;20243;-69
2023/12/26 09:06:06;;;;;;;0.20;0.20;;;;;;;;;;5077320;28;20204;-68
2023/12/26 09:08:34;;;;;;;0.28;0.22;;;;;;;;;;5076534;28;20263;-68
2023/12/26 09:11:02;;;;;;;0.30;0.30;;;;;;;;;;5077093;28;20208;-68
2023/12/26 09:13:30;;;;;;;0.30;0.30;;;;;;;;;;5078012;28;20258;-69
2023/12/26 09:15:59;;;;;;;0.30;0.30;;;;;;;;;;5081974;28;20224;-69
2023/12/26 09:18:28;;;;;;;0.25;0.25;;;;;;;;;;5082251;28;20204;-69
2023/12/26 09:20:56;;;;;;;0.30;0.30;;;;;;;;;;5083547;28;20212;-69
2023/12/26 09:23:23;;;;;;;0.30;0.30;;;;;;;;;;5082205;28;20554;-69
2023/12/26 09:25:51;;;;;;;0.30;0.30;;;;;;;;;;5086586;28;20215;-69
2023/12/26 09:28:18;;;;;;;0.40;0.40;;;;;;;;;;5079145;28;20230;-69
2023/12/26 09:30:45;;;;;;;0.30;0.30;;;;;;;;;;5079113;28;20231;-69
2023/12/26 09:33:13;;;;;;;0.40;0.40;;;;;;;;;;5085045;28;20212;-69
2023/12/26 09:35:42;;;;;;;0.30;0.30;;;;;;;;;;5077955;28;20208;-69
2023/12/26 09:38:09;;;;;;;0.20;0.20;;;;;;;;;;5084983;28;20208;-69
2023/12/26 09:40:37;;;;;;;0.40;0.40;;;;;;;;;;5078999;28;20491;-68
2023/12/26 09:43:07;;;;;;;0.30;0.30;;;;;;;;;;5086399;28;20269;-69
2023/12/26 09:45:34;;;;;;;0.38;0.30;;;;;;;;;;5084669;28;20208;-69
2023/12/26 09:48:02;;;;;;;0.30;0.30;;;;;;;;;;5090135;28;20204;-69
2023/12/26 09:50:29;;;;;;;0.30;0.30;;;;;;;;;;5088663;28;20218;-69
2023/12/26 09:53:01;;;;;;;0.30;0.22;;;;;;;;;;5084188;28;20210;-69
2023/12/26 09:55:29;;;;;;;0.38;0.30;;;;;;;;;;5083675;28;20221;-68
2023/12/26 09:57:58;;;;;;;0.25;0.25;;;;;;;;;;5085764;28;20204;-68
2023/12/26 10:00:26;;;;;;;0.30;0.30;;;;;;;;;;5085092;28;20228;-68
2023/12/26 10:02:54;;;;;;;0.50;0.50;;;;;;;;;;5077448;28;20243;-68
2023/12/26 10:05:21;;;;;;;0.30;0.30;;;;;;;;;;5083315;28;20204;-67
2023/12/26 10:07:48;;;;;;;0.20;0.20;;;;;;;;;;5089838;28;20204;-68
2023/12/26 10:10:20;;;;;;;0.40;0.20;;;;;;;;;;5086198;28;20224;-68
2023/12/26 10:12:47;;;;;;;0.35;0.35;;;;;;;;;;5086051;28;20208;-67
2023/12/26 10:15:15;;;;;;;0.32;0.32;;;;;;;;;;5086264;28;20204;-68
2023/12/26 10:17:43;;;;;;;0.30;0.30;;;;;;;;;;5084418;28;20204;-67
2023/12/26 10:20:12;;;;;;;0.30;0.30;;;;;;;;;;5090479;28;20208;-68
2023/12/26 10:22:42;;;;;;;0.30;0.30;;;;;;;;;;5088713;28;20208;-68
2023/12/26 10:25:10;;;;;;;0.40;0.20;;;;;;;;;;5082926;28;20223;-68
2023/12/26 10:27:39;;;;;;;0.40;0.30;;;;;;;;;;5083232;28;20235;-68
2023/12/26 10:30:07;;;;;;;0.40;0.30;;;;;;;;;;5088376;28;20307;-68
2023/12/26 10:32:33;;;;;;;0.38;0.30;;;;;;;;;;5086927;28;20200;-68
2023/12/26 10:35:15;;;;;;;0.30;0.30;;;;;;;;;;5076021;28;20235;-67
2023/12/26 10:37:42;;;;;;;0.30;0.30;;;;;;;;;;5079252;28;20215;-68
2023/12/26 10:40:11;;;;;;;0.35;0.30;;;;;;;;;;5089613;28;20593;-68
2023/12/26 10:42:40;;;;;;;0.25;0.25;;;;;;;;;;5083714;28;20212;-68
2023/12/26 10:45:10;;;;;;;0.50;0.40;;;;;;;;;;5077175;28;20282;-68
2023/12/26 10:47:38;;;;;;;0.50;0.30;;;;;;;;;;5085235;28;20676;-69
2023/12/26 10:50:06;;;;;;;0.40;0.40;;;;;;;;;;5088438;28;20234;-68
2023/12/26 10:52:35;;;;;;;1.23;0.40;;;;;;;;;;5084721;28;20208;-68
2023/12/26 10:55:05;;;;;;;0.45;0.45;;;;;;;;;;5080292;28;20210;-69
2023/12/26 10:57:33;;;;;;;0.30;0.30;;;;;;;;;;5082337;28;20286;-68
2023/12/26 13:51:41;;;;;;;1.73;0.52;;;;;;;;;;5078807;28;20206;-70
2023/12/26 13:54:27;;;;;;;2.55;0.50;;;;;;;;;;5078700;28;20214;-70
2023/12/26 13:57:13;;;;;;;3.05;0.60;;;;;;;;;;5066024;28;20212;-70
2023/12/26 13:59:59;;;;;;;2.25;0.50;;;;;;;;;;5058899;28;20493;-70
2023/12/26 14:02:45;;;;;;;2.78;0.50;;;;;;;;;;5058288;28;20271;-70
2023/12/26 14:05:31;;;;;;;1.70;0.50;;;;;;;;;;5058118;28;20217;-70
2023/12/26 14:08:17;;;;;;;1.13;0.43;;;;;;;;;;5058564;28;20204;-70
2023/12/26 14:11:03;;;;;;;1.23;0.40;;;;;;;;;;5058407;28;20242;-70
2023/12/26 14:13:48;;;;;;;1.17;0.40;;;;;;;;;;5067591;28;20277;-70
2023/12/26 14:16:34;;;;;;;1.50;0.52;;;;;;;;;;5079206;28;20215;-70
2023/12/26 14:19:21;;;;;;;0.93;0.40;;;;;;;;;;5077781;28;20192;-70
2023/12/26 14:22:07;;;;;;;1.27;0.70;;;;;;;;;;5078212;28;20204;-70
2023/12/26 14:24:53;;;;;;;0.98;0.50;;;;;;;;;;5078669;28;20211;-70
2023/12/26 14:27:39;;;;;;;0.70;0.50;;;;;;;;;;5078455;28;20207;-70
2023/12/26 14:30:25;;;;;;;0.73;0.50;;;;;;;;;;5078109;28;20231;-70
2023/12/26 14:33:11;;;;;;;1.33;0.70;;;;;;;;;;5077639;28;20227;-70
2023/12/26 14:35:56;;;;;;;1.60;0.50;;;;;;;;;;5078111;28;20303;-70
2023/12/26 14:38:42;;;;;;;0.68;0.52;;;;;;;;;;5078581;28;20586;-71
2023/12/26 14:41:28;;;;;;;1.13;0.60;;;;;;;;;;5078454;28;20204;-71
2023/12/26 14:44:15;;;;;;;1.38;0.55;;;;;;;;;;5078178;28;20204;-70
2023/12/26 14:47:00;;;;;;;1.00;0.50;;;;;;;;;;5076030;28;20230;-71
2023/12/26 14:49:46;;;;;;;0.90;0.60;;;;;;;;;;5080209;28;20506;-71
2023/12/26 14:52:32;;;;;;;1.35;0.60;;;;;;;;;;5097498;28;20215;-70
2023/12/26 14:55:18;;;;;;;0.60;0.55;;;;;;;;;;5097758;28;20196;-71
2023/12/26 14:58:05;;;;;;;1.17;0.45;;;;;;;;;;5098771;28;20207;-71
2023/12/26 15:00:51;;;;;;;1.35;0.70;;;;;;;;;;5097349;28;20199;-71
2023/12/26 15:03:19;;;;;;;1.15;0.47;;;;;;;;;;5097454;28;20209;-71
2023/12/26 15:05:47;;;;;;;1.35;0.80;;;;;;;;;;5097334;28;20195;-71
2023/12/26 15:08:14;;;;;;;0.50;0.40;;;;;;;;;;5096918;28;20204;-70
2023/12/26 15:10:42;;;;;;;1.55;0.50;;;;;;;;;;5098026;28;20223;-71
2023/12/26 15:13:09;;;;;;;0.70;0.50;;;;;;;;;;5097728;28;20203;-71
2023/12/26 15:15:37;;;;;;;0.93;0.50;;;;;;;;;;5097794;28;20203;-71
2023/12/26 15:18:04;;;;;;;1.55;0.45;;;;;;;;;;5097480;28;20203;-71
2023/12/26 15:20:33;;;;;;;2.60;0.63;;;;;;;;;;5096983;28;20221;-71
2023/12/26 15:23:00;;;;;;;0.50;0.50;;;;;;;;;;5096908;28;20200;-70
2023/12/26 15:25:28;;;;;;;0.98;0.60;;;;;;;;;;5097149;28;20196;-71
2023/12/26 15:27:56;;;;;;;0.73;0.50;;;;;;;;;;5097189;28;20243;-71
2023/12/26 15:30:23;;;;;;;1.10;0.63;;;;;;;;;;5096820;28;20226;-71
2023/12/26 15:32:51;;;;;;;1.17;0.52;;;;;;;;;;5097150;28;20204;-71
2023/12/26 15:35:19;;;;;;;0.77;0.57;;;;;;;;;;5096619;28;20211;-71
2023/12/26 15:37:48;;;;;;;1.63;0.73;;;;;;;;;;5095791;28;20210;-71
2023/12/26 15:40:16;;;;;;;1.65;0.65;;;;;;;;;;5096945;28;20199;-71
2023/12/26 15:42:43;;;;;;;0.85;0.50;;;;;;;;;;5096828;28;20204;-71
2023/12/26 15:45:11;;;;;;;1.02;0.63;;;;;;;;;;5097153;28;20203;-71
2023/12/26 15:47:38;;;;;;;0.80;0.70;;;;;;;;;;5087460;28;20206;-71
2023/12/26 15:50:06;;;;;;;1.73;0.70;;;;;;;;;;5076118;28;20224;-71
2023/12/26 15:52:34;;;;;;;1.50;0.57;;;;;;;;;;5075316;28;20239;-71
2023/12/26 15:55:03;;;;;;;1.13;0.60;;;;;;;;;;5076168;28;20214;-71
2023/12/26 15:57:30;;;;;;;1.40;0.70;;;;;;;;;;5075592;28;20306;-71
2023/12/26 15:59:57;;;;;;;0.60;0.60;;;;;;;;;;5075843;28;20220;-71
2023/12/26 16:02:25;;;;;;;1.05;0.60;;;;;;;;;;5075620;28;20215;-70
2023/12/26 16:04:55;;;;;;;0.70;0.70;;;;;;;;;;5075814;28;20201;-71
2023/12/26 16:07:22;;;;;;;0.63;0.50;;;;;;;;;;5076523;28;20258;-71
2023/12/26 16:09:50;;;;;;;0.60;0.60;;;;;;;;;;5076096;28;20234;-71
2023/12/26 16:12:19;;;;;;;0.85;0.63;;;;;;;;;;5075230;28;20571;-71
2023/12/26 16:14:46;;;;;;;0.82;0.50;;;;;;;;;;5075819;28;20200;-71
2023/12/26 16:17:13;;;;;;;0.95;0.70;;;;;;;;;;5076285;28;20226;-71
2023/12/26 16:19:41;;;;;;;0.93;0.65;;;;;;;;;;5075971;28;20200;-71
2023/12/26 16:22:09;;;;;;;0.90;0.60;;;;;;;;;;5075910;28;20211;-71
2023/12/26 16:24:38;;;;;;;1.00;0.63;;;;;;;;;;5076020;28;20290;-71
2023/12/26 16:27:05;;;;;;;0.88;0.60;;;;;;;;;;5076946;28;20204;-71
2023/12/26 16:29:34;;;;;;;0.75;0.60;;;;;;;;;;5075958;28;20212;-71
2023/12/26 16:32:02;;;;;;;0.98;0.70;;;;;;;;;;5075237;28;20222;-71
2023/12/26 16:34:30;;;;;;;0.60;0.60;;;;;;;;;;5075394;28;20511;-71
2023/12/26 16:36:57;;;;;;;1.08;0.50;;;;;;;;;;5076100;28;20270;-71
2023/12/26 16:39:24;;;;;;;1.02;0.50;;;;;;;;;;5076222;28;20287;-71
2023/12/26 16:42:00;;;;;;;1.15;0.60;;;;;;;;;;5076030;28;20218;-71
2023/12/26 16:44:27;;;;;;;0.65;0.60;;;;;;;;;;5075432;28;20593;-70
2023/12/26 16:46:56;;;;;;;1.00;0.70;;;;;;;;;;5072952;28;20228;-70
2023/12/26 16:49:24;;;;;;;1.75;0.70;;;;;;;;;;5056486;28;20209;-70
2023/12/26 16:51:51;;;;;;;0.60;0.57;;;;;;;;;;5058830;28;20209;-70
2023/12/26 16:54:19;;;;;;;1.02;0.70;;;;;;;;;;5059747;28;20212;-70
2023/12/26 16:56:46;;;;;;;0.77;0.70;;;;;;;;;;5059572;28;20295;-70
2023/12/26 16:59:13;;;;;;;0.73;0.60;;;;;;;;;;5060631;28;20275;-70
2023/12/26 17:01:44;;;;;;;0.50;0.50;;;;;;;;;;5059585;28;20215;-70
2023/12/26 17:04:14;;;;;;;0.63;0.50;;;;;;;;;;5059644;28;20204;-70
2023/12/26 17:06:42;;;;;;;2.08;0.82;;;;;;;;;;5059892;28;20212;-70
2023/12/26 17:09:09;;;;;;;0.95;0.65;;;;;;;;;;5059779;28;20205;-70
2023/12/26 17:11:37;;;;;;;0.75;0.70;;;;;;;;;;5060081;28;20238;-70
2023/12/26 17:14:05;;;;;;;0.70;0.63;;;;;;;;;;5060316;28;20205;-71
2023/12/26 17:16:32;;;;;;;1.00;0.60;;;;;;;;;;5059741;28;20292;-70
2023/12/26 17:18:59;;;;;;;1.45;0.50;;;;;;;;;;5059386;28;20208;-70
2023/12/26 17:21:28;;;;;;;0.50;0.50;;;;;;;;;;5059072;28;20201;-70
2023/12/26 17:23:55;;;;;;;0.63;0.63;;;;;;;;;;5059418;28;20232;-70
2023/12/26 17:26:23;;;;;;;1.40;0.77;;;;;;;;;;5059810;28;20212;-70
2023/12/26 17:28:54;;;;;;;0.50;0.50;;;;;;;;;;5059840;28;20207;-70
2023/12/26 17:31:21;;;;;;;0.70;0.70;;;;;;;;;;5059386;28;20276;-70
2023/12/26 17:33:49;;;;;;;0.80;0.60;;;;;;;;;;5059168;28;20205;-70
2023/12/26 17:36:17;;;;;;;1.00;0.70;;;;;;;;;;5060079;28;20205;-70
2023/12/26 17:38:46;;;;;;;0.63;0.63;;;;;;;;;;5059748;28;20205;-70
2023/12/26 17:41:14;;;;;;;0.73;0.60;;;;;;;;;;5059411;28;20295;-70
2023/12/26 17:43:41;;;;;;;1.10;0.73;;;;;;;;;;5059362;28;20657;-70
2023/12/26 17:46:09;;;;;;;0.60;0.60;;;;;;;;;;5058651;28;20302;-70